Aérodrome :
LOGIN :

S'inscrire | Disclaimer

   EN    FR    IT 

 










Légende :    VFR   VFR Marginal   IFR   IFR Intensif   IFR Très Intensif
Visi : 
Plafond : 
>= 8 km
>= 3000ft
5 à 8 km
1000 à 3000 ft
1500m à 5 km
500 à 1000 ft
800 à 1500m
200 à 500 ft
< 800m
< 200 ft
Symboles :   Orages  Brouillard  Fortes neiges  Fortes précipitations  Vent > 20 kt
SIGMETs :   Divers  Orages  Givrage  Turbulence  Onde Orograph.  Cendres Volcan.






- Altitude de l'aérodrome : 17 ft
- Code IATA : GRQ


EHGG - Groningen Eelde

DERNIER METAR :
  • 280755Z AUTO 31011KT 250V350 9999 FEW018 SCT023 BKN030 13/08 Q1019 NOSIG

METARs EXPIRÉS :
  • 280725Z AUTO 31013KT 280V340 9999 BKN043 OVC047 12/07 Q1019 NOSIG
  • 280655Z AUTO 31012KT 270V360 9999 BKN043 OVC047 12/07 Q1019 NOSIG
  • 280625Z AUTO 31012KT 260V350 9999 FEW020 SCT026 BKN049 12/07 Q1019 NOSIG
  • 280555Z AUTO 31012KT 270V340 9999 BKN022 BKN026 BKN031 11/07 Q1019 NOSIG
  • 280525Z AUTO 30009KT 260V340 9999 FEW023 11/07 Q1019 NOSIG

TAF TAF EHGG
Valide du 28 à 06h jusqu'au 29 à 12h UTC


280452Z 2806/2912 30012KT 9999 SCT030
BECMG 2806/2809 32015G25KT
TEMPO 2806/2809 7000 -SHRA BKN025 FEW030TCU
PROB40
TEMPO 2815/2903 7000 -SHRA BKN025 FEW030TCU
BECMG 2817/2820 29007KT
BECMG 2906/2909 32010KT



MET'MAP, la Météo Aéronautique d'un coup d'oeil ! - Copyright ORBIFLY Décembre 2007 - Disclaimer

ORBIFLY MET'MAP TEAM :

Programmation & Développement : Alexandra Zaïnal
Sur une idée originale de : Baudouin d'Aumeries
Soutien technique & logistique : Manuel Goepfert
Assistance : Marc-Olivier Méhu

Contact : metmap@orbifly.com




SOURCES & CREDITS :

   NOAA